createdAt,value
2019-06-19T00:01:13.731Z,7.70
2019-06-19T00:03:43.196Z,7.87
2019-06-19T00:06:12.725Z,7.30
2019-06-19T00:08:42.934Z,9.43
2019-06-19T00:11:12.788Z,8.33
2019-06-19T00:13:44.219Z,7.42
2019-06-19T00:16:12.670Z,8.08
2019-06-19T00:18:43.187Z,8.03
2019-06-19T00:21:12.351Z,7.65
2019-06-19T00:23:42.721Z,7.53
2019-06-19T00:26:13.910Z,8.68
2019-06-19T00:28:42.662Z,8.35
2019-06-19T00:31:11.614Z,7.67
2019-06-19T00:33:41.215Z,8.05
2019-06-19T00:36:11.545Z,8.30
2019-06-19T00:38:41.687Z,8.40
2019-06-19T00:41:11.904Z,7.42
2019-06-19T00:43:41.145Z,8.18
2019-06-19T00:46:11.064Z,7.95
2019-06-19T00:48:41.473Z,8.18
2019-06-19T00:51:11.685Z,7.35
2019-06-19T00:53:42.133Z,7.33
2019-06-19T00:56:16.134Z,7.00
2019-06-19T00:58:45.108Z,7.95
2019-06-19T01:01:14.070Z,8.05
2019-06-19T01:03:42.978Z,7.87
2019-06-19T01:06:12.007Z,8.85
2019-06-19T01:08:41.963Z,8.25
2019-06-19T01:11:11.428Z,8.58
2019-06-19T01:13:41.501Z,7.50
2019-06-19T01:16:11.746Z,8.48
2019-06-19T01:18:41.218Z,8.75
2019-06-19T01:21:12.233Z,11.08
2019-06-19T01:23:41.035Z,9.03
2019-06-19T01:26:11.874Z,8.23
2019-06-19T01:28:41.329Z,7.90
2019-06-19T01:31:11.876Z,8.30
2019-06-19T01:33:41.525Z,7.70
2019-06-19T01:36:11.234Z,7.83
2019-06-19T01:38:41.233Z,8.43
2019-06-19T01:41:10.963Z,8.45
2019-06-19T01:43:41.013Z,8.40
2019-06-19T01:46:10.866Z,9.25
2019-06-19T01:48:41.645Z,7.97
2019-06-19T01:51:11.895Z,9.15
2019-06-19T01:54:14.954Z,9.98
2019-06-19T01:56:43.863Z,10.80
2019-06-19T01:59:12.782Z,13.53
2019-06-19T02:01:41.716Z,11.35
2019-06-19T02:04:11.785Z,11.03
2019-06-19T02:06:41.900Z,10.58
2019-06-19T02:09:11.429Z,9.98
2019-06-19T02:11:42.329Z,9.50
2019-06-19T02:14:11.321Z,10.10
2019-06-19T02:16:41.310Z,10.23
2019-06-19T02:19:11.481Z,8.68
2019-06-19T02:21:41.303Z,10.45
2019-06-19T02:24:10.727Z,9.05
2019-06-19T02:26:40.762Z,10.28
2019-06-19T02:29:11.842Z,9.05
2019-06-19T02:31:42.037Z,9.38
2019-06-19T02:34:12.671Z,9.88
2019-06-19T02:36:43.360Z,11.73
2019-06-19T02:39:12.569Z,8.95
2019-06-19T02:41:41.556Z,13.57
2019-06-19T02:44:10.572Z,11.53
2019-06-19T02:46:39.955Z,11.12
2019-06-19T02:49:08.882Z,10.45
2019-06-19T02:51:37.820Z,11.48
2019-06-19T02:54:06.990Z,11.97
2019-06-19T02:56:36.250Z,12.25
2019-06-19T02:59:05.820Z,11.38
2019-06-19T03:01:34.788Z,10.45
2019-06-19T03:04:03.861Z,9.80
2019-06-19T03:06:32.799Z,10.38
2019-06-19T03:09:01.696Z,10.40
2019-06-19T03:11:30.655Z,10.32
2019-06-19T03:13:59.546Z,9.95
2019-06-19T03:16:28.524Z,12.60
2019-06-19T03:18:57.341Z,9.55
2019-06-19T03:21:26.145Z,9.48
2019-06-19T03:23:54.987Z,8.80
2019-06-19T03:26:23.896Z,9.35
2019-06-19T03:28:52.760Z,9.48
2019-06-19T03:31:34.630Z,9.28
2019-06-19T03:33:52.445Z,9.93
2019-06-19T03:36:21.505Z,10.15
2019-06-19T03:38:50.533Z,10.03
2019-06-19T03:41:19.372Z,10.65
2019-06-19T03:43:48.261Z,10.20
2019-06-19T03:46:17.221Z,11.48
2019-06-19T03:48:46.121Z,11.08
2019-06-19T03:51:15.800Z,9.88
2019-06-19T03:53:44.636Z,7.78
2019-06-19T03:56:13.478Z,6.92
2019-06-19T03:58:42.489Z,7.67
2019-06-19T04:01:11.468Z,9.50
2019-06-19T04:03:40.426Z,8.20
2019-06-19T04:06:09.341Z,7.72
2019-06-19T04:08:38.292Z,6.70
2019-06-19T04:11:07.126Z,7.40
2019-06-19T04:13:36.036Z,7.58
2019-06-19T04:16:05.084Z,7.55
2019-06-19T04:18:33.943Z,7.55
2019-06-19T04:21:02.848Z,7.72
2019-06-19T04:23:31.871Z,8.08
2019-06-19T04:26:00.784Z,8.30
2019-06-19T04:28:48.869Z,8.18
2019-06-19T04:31:17.894Z,7.95
2019-06-19T04:33:46.805Z,8.90
2019-06-19T04:36:15.760Z,8.40
2019-06-19T04:38:44.699Z,11.60
2019-06-19T04:41:13.657Z,10.15
2019-06-19T04:43:42.685Z,13.60
2019-06-19T04:46:11.723Z,10.40
2019-06-19T04:48:40.897Z,10.60
2019-06-19T04:51:09.753Z,10.30
2019-06-19T04:53:38.829Z,11.85
2019-06-19T04:56:07.751Z,11.48
2019-06-19T04:58:36.733Z,11.57
2019-06-19T05:01:05.803Z,11.50
2019-06-19T05:03:35.145Z,11.40
2019-06-19T05:06:04.265Z,10.90
2019-06-19T05:08:46.940Z,10.28
2019-06-19T05:11:16.077Z,12.10
2019-06-19T05:13:45.059Z,12.05
2019-06-19T05:16:14.006Z,11.57
2019-06-19T05:18:42.891Z,11.95
2019-06-19T05:21:11.767Z,14.28
2019-06-19T05:23:40.762Z,12.07
2019-06-19T05:26:09.792Z,11.63
2019-06-19T05:28:38.670Z,12.00
2019-06-19T05:31:07.637Z,12.10
2019-06-19T05:33:36.701Z,12.15
2019-06-19T05:36:05.696Z,12.75
2019-06-19T05:38:34.709Z,12.28
2019-06-19T05:41:05.656Z,12.80
2019-06-19T05:43:34.646Z,12.65
2019-06-19T05:46:03.643Z,13.10
2019-06-19T05:48:32.531Z,13.28
2019-06-19T05:51:01.530Z,13.08
2019-06-19T05:53:30.445Z,12.75
2019-06-19T05:55:59.345Z,13.15
2019-06-19T05:58:28.329Z,12.78
2019-06-19T06:00:57.210Z,13.40
2019-06-19T06:03:26.101Z,12.85
2019-06-19T06:05:55.020Z,16.45
2019-06-19T06:08:24.082Z,13.95
2019-06-19T06:10:53.043Z,12.33
2019-06-19T06:13:22.115Z,13.40
2019-06-19T06:15:50.959Z,12.07
2019-06-19T06:18:20.005Z,13.32
2019-06-19T06:20:57.371Z,12.10
2019-06-19T06:23:26.211Z,12.37
2019-06-19T06:26:07.572Z,12.07
2019-06-19T06:28:37.652Z,13.10
2019-06-19T06:31:08.394Z,13.32
2019-06-19T06:33:37.386Z,11.68
2019-06-19T06:36:06.477Z,12.07
2019-06-19T06:38:35.465Z,13.28
2019-06-19T06:41:04.436Z,13.35
2019-06-19T06:43:33.340Z,12.93
2019-06-19T06:46:02.281Z,12.15
2019-06-19T06:48:31.343Z,14.00
2019-06-19T06:51:00.384Z,14.98
2019-06-19T06:53:29.269Z,13.28
2019-06-19T06:55:59.159Z,16.40
2019-06-19T06:58:28.371Z,11.30
2019-06-19T07:00:59.741Z,11.15
2019-06-19T07:03:28.950Z,9.30
2019-06-19T07:05:58.112Z,9.38
2019-06-19T07:08:27.094Z,8.70
2019-06-19T07:10:55.985Z,7.60
2019-06-19T07:13:24.891Z,5.08
2019-06-19T07:15:53.895Z,5.15
2019-06-19T07:18:22.998Z,4.80
2019-06-19T07:20:52.001Z,4.78
2019-06-19T07:23:20.855Z,3.50
2019-06-19T07:25:49.699Z,3.47
2019-06-19T07:28:18.623Z,2.37
2019-06-19T07:30:47.518Z,2.20
2019-06-19T07:33:16.501Z,2.15
2019-06-19T07:35:46.261Z,2.37
2019-06-19T07:38:15.314Z,1.87
2019-06-19T07:40:44.223Z,2.35
2019-06-19T07:43:25.040Z,2.25
2019-06-19T07:45:53.892Z,2.62
2019-06-19T07:48:22.729Z,2.20
2019-06-19T07:50:51.581Z,2.27
2019-06-19T07:53:20.615Z,2.58
2019-06-19T07:55:49.488Z,2.55
2019-06-19T07:58:18.431Z,2.20
2019-06-19T08:00:47.367Z,2.27
2019-06-19T08:03:16.251Z,1.72
2019-06-19T08:05:45.469Z,1.92
2019-06-19T08:08:14.335Z,1.82
2019-06-19T08:10:43.327Z,1.70
2019-06-19T08:13:13.621Z,1.80
2019-06-19T08:15:42.975Z,2.50
2019-06-19T08:18:11.912Z,2.65
2019-06-19T08:20:40.955Z,2.62
2019-06-19T08:23:09.875Z,3.02
2019-06-19T08:25:39.305Z,2.60
2019-06-19T08:28:08.304Z,2.50
2019-06-19T08:30:37.244Z,2.20
2019-06-19T08:33:06.225Z,2.22
2019-06-19T08:35:35.048Z,2.02
2019-06-19T08:38:03.877Z,1.95
2019-06-19T08:40:32.743Z,2.05
2019-06-19T08:43:01.664Z,2.00
2019-06-19T08:45:30.695Z,1.80
2019-06-19T08:47:59.723Z,2.00
2019-06-19T08:50:28.887Z,1.92
2019-06-19T08:52:58.282Z,2.10
2019-06-19T08:55:27.316Z,2.35
2019-06-19T08:57:56.343Z,2.10
2019-06-19T09:00:28.304Z,2.00
2019-06-19T09:02:57.438Z,2.00
2019-06-19T09:05:26.705Z,2.10
2019-06-19T09:07:55.615Z,2.40
2019-06-19T09:10:34.385Z,1.45
2019-06-19T09:13:03.459Z,2.15
2019-06-19T09:15:32.483Z,2.35
2019-06-19T09:18:01.438Z,1.80
2019-06-19T09:20:30.414Z,1.55
2019-06-19T09:22:59.433Z,1.72
2019-06-19T09:25:28.347Z,1.90
2019-06-19T09:27:57.382Z,1.67
2019-06-19T09:30:30.899Z,2.55
2019-06-19T09:32:59.889Z,1.75
2019-06-19T09:35:28.743Z,2.00
2019-06-19T09:37:57.665Z,1.90
2019-06-19T09:40:26.589Z,2.17
2019-06-19T09:42:55.562Z,2.15
2019-06-19T09:45:24.400Z,2.45
2019-06-19T09:47:53.230Z,1.80
2019-06-19T09:50:22.177Z,2.30
2019-06-19T09:52:51.060Z,2.25
2019-06-19T09:55:20.012Z,2.25
2019-06-19T09:57:48.894Z,1.92
2019-06-19T10:00:18.439Z,1.32
2019-06-19T10:02:47.361Z,1.98
2019-06-19T10:05:16.281Z,1.75
2019-06-19T10:07:45.093Z,1.82
2019-06-19T10:10:15.537Z,2.08
2019-06-19T10:12:44.534Z,2.37
2019-06-19T10:15:13.561Z,1.77
2019-06-19T10:17:42.526Z,1.87
2019-06-19T10:20:11.514Z,1.37
2019-06-19T10:22:43.299Z,1.37
2019-06-19T10:25:12.485Z,1.20
2019-06-19T10:27:41.534Z,1.27
2019-06-19T10:30:10.731Z,1.30
2019-06-19T10:32:39.721Z,1.47
2019-06-19T10:35:23.150Z,1.60
2019-06-19T10:37:39.572Z,1.30
2019-06-19T10:40:08.545Z,1.55
2019-06-19T10:42:37.484Z,1.50
2019-06-19T10:45:06.512Z,1.57
2019-06-19T10:47:35.532Z,1.50
2019-06-19T10:50:05.099Z,1.80
2019-06-19T10:52:34.105Z,1.70
2019-06-19T10:55:03.086Z,1.90
2019-06-19T10:57:31.935Z,1.60
2019-06-19T11:00:00.802Z,1.50
2019-06-19T11:02:29.728Z,1.55
2019-06-19T11:04:58.627Z,1.62
2019-06-19T11:07:27.641Z,1.50
2019-06-19T11:09:56.619Z,1.52
2019-06-19T11:12:25.520Z,1.40
2019-06-19T11:14:54.512Z,1.50
2019-06-19T11:17:23.319Z,1.85
2019-06-19T11:19:52.224Z,1.77
2019-06-19T11:22:21.185Z,1.80
2019-06-19T11:24:50.096Z,2.10
2019-06-19T11:27:19.013Z,1.67
2019-06-19T11:29:47.906Z,1.60
2019-06-19T11:32:16.912Z,1.80
2019-06-19T11:34:45.911Z,1.90
2019-06-19T11:37:14.799Z,2.10
2019-06-19T11:39:43.753Z,2.00
2019-06-19T11:42:12.699Z,2.08
2019-06-19T11:44:41.527Z,1.90
2019-06-19T11:47:10.358Z,1.87
2019-06-19T11:49:39.193Z,2.05
2019-06-19T11:52:08.199Z,2.10
2019-06-19T11:54:37.109Z,2.45
2019-06-19T11:57:05.932Z,2.87
2019-06-19T11:59:34.754Z,2.20
2019-06-19T12:02:03.570Z,2.67
2019-06-19T12:04:32.428Z,2.50
2019-06-19T12:07:01.489Z,2.62
2019-06-19T12:09:30.314Z,3.10
2019-06-19T12:11:59.249Z,2.98
2019-06-19T12:14:28.167Z,2.65
2019-06-19T12:16:57.094Z,3.08
2019-06-19T12:19:26.144Z,2.50
2019-06-19T12:21:55.173Z,2.22
2019-06-19T12:24:24.034Z,2.25
2019-06-19T12:26:53.108Z,2.15
2019-06-19T12:29:21.927Z,2.27
2019-06-19T12:31:50.831Z,2.62
2019-06-19T12:34:19.654Z,2.80
2019-06-19T12:36:48.486Z,3.42
2019-06-19T12:39:17.331Z,2.83
2019-06-19T12:41:46.416Z,2.20
2019-06-19T12:44:15.268Z,2.35
2019-06-19T12:46:44.092Z,2.00
2019-06-19T12:49:12.964Z,2.25
2019-06-19T12:51:41.942Z,2.65
2019-06-19T12:54:10.900Z,2.62
2019-06-19T12:56:40.347Z,2.22
2019-06-19T12:59:09.464Z,2.37
2019-06-19T13:01:38.330Z,2.10
2019-06-19T13:04:07.207Z,2.22
2019-06-19T13:06:46.644Z,2.37
2019-06-19T13:09:08.310Z,2.37
2019-06-19T13:11:37.273Z,2.35
2019-06-19T13:14:06.267Z,2.40
2019-06-19T13:16:35.324Z,2.90
2019-06-19T13:19:04.440Z,2.20
2019-06-19T13:21:33.350Z,2.55
2019-06-19T13:24:02.386Z,2.08
2019-06-19T13:26:31.342Z,2.40
2019-06-19T13:29:00.180Z,2.60
2019-06-19T13:31:29.141Z,2.55
2019-06-19T13:33:58.131Z,2.83
2019-06-19T13:36:27.015Z,2.92
2019-06-19T13:38:55.865Z,2.45
2019-06-19T13:41:24.667Z,2.10
2019-06-19T13:43:53.587Z,2.87
2019-06-19T13:46:22.603Z,2.92
2019-06-19T13:48:51.719Z,2.50
2019-06-19T13:51:20.653Z,3.40
2019-06-19T13:53:49.515Z,2.98
2019-06-19T13:56:21.088Z,2.50
2019-06-19T13:58:48.983Z,3.02
2019-06-19T14:01:17.908Z,2.95
2019-06-19T14:03:48.051Z,2.67
2019-06-19T14:06:17.094Z,2.62
2019-06-19T14:08:45.901Z,2.65
2019-06-19T14:11:14.745Z,2.60
2019-06-19T14:13:43.679Z,2.85
2019-06-19T14:16:12.656Z,2.30
2019-06-19T14:18:41.617Z,2.50
2019-06-19T14:21:10.666Z,2.98
2019-06-19T14:23:39.469Z,3.00
2019-06-19T14:26:08.462Z,3.17
2019-06-19T14:28:37.361Z,3.25
2019-06-19T14:31:06.258Z,2.75
2019-06-19T14:33:35.245Z,4.75
2019-06-19T14:36:04.223Z,4.55
2019-06-19T14:38:33.957Z,3.75
2019-06-19T14:41:02.944Z,4.22
2019-06-19T14:43:31.895Z,4.97
2019-06-19T14:46:00.814Z,5.08
2019-06-19T14:48:29.797Z,4.80
2019-06-19T14:50:58.771Z,5.08
2019-06-19T14:53:27.580Z,4.85
2019-06-19T14:55:56.545Z,5.62
2019-06-19T14:58:25.435Z,5.05
2019-06-19T15:00:55.339Z,5.80
2019-06-19T15:03:24.624Z,6.00
2019-06-19T15:05:53.699Z,5.53
2019-06-19T15:08:22.636Z,6.28
2019-06-19T15:10:51.741Z,5.05
2019-06-19T15:13:20.709Z,4.97
2019-06-19T15:15:49.794Z,5.67
2019-06-19T15:18:18.823Z,5.75
2019-06-19T15:20:47.744Z,4.70
2019-06-19T15:23:16.669Z,4.95
2019-06-19T15:25:45.525Z,4.80
2019-06-19T15:28:14.453Z,4.70
2019-06-19T15:30:43.337Z,4.55
2019-06-19T15:33:12.155Z,4.58
2019-06-19T15:35:41.181Z,4.33
2019-06-19T15:38:12.181Z,4.50
2019-06-19T15:40:40.799Z,4.30
2019-06-19T15:43:09.760Z,4.53
2019-06-19T15:45:38.673Z,4.55
2019-06-19T15:48:07.636Z,5.03
2019-06-19T15:50:36.581Z,4.55
2019-06-19T15:53:05.722Z,5.35
2019-06-19T15:55:34.670Z,5.25
2019-06-19T15:58:03.651Z,5.55
2019-06-19T16:00:32.780Z,4.80
2019-06-19T16:03:01.804Z,5.25
2019-06-19T16:05:30.793Z,4.75
2019-06-19T16:07:59.707Z,4.87
2019-06-19T16:10:28.682Z,4.67
2019-06-19T16:12:57.617Z,5.28
2019-06-19T16:15:26.863Z,5.22
2019-06-19T16:17:55.730Z,5.37
2019-06-19T16:20:24.843Z,6.00
2019-06-19T16:22:53.839Z,4.85
2019-06-19T16:25:22.833Z,6.30
2019-06-19T16:27:51.692Z,5.50
2019-06-19T16:30:20.806Z,5.22
2019-06-19T16:32:49.786Z,9.00
2019-06-19T16:35:18.939Z,6.03
2019-06-19T16:37:47.808Z,5.37
2019-06-19T16:40:17.634Z,5.37
2019-06-19T16:42:46.622Z,6.08
2019-06-19T16:45:15.937Z,6.78
2019-06-19T16:47:44.879Z,6.17
2019-06-19T16:50:14.128Z,5.00
2019-06-19T16:52:42.983Z,3.77
2019-06-19T16:55:13.474Z,4.65
2019-06-19T16:57:42.400Z,3.92
2019-06-19T17:00:11.929Z,3.92
2019-06-19T17:02:41.045Z,3.45
2019-06-19T17:05:10.401Z,3.02
2019-06-19T17:07:39.274Z,3.10
2019-06-19T17:10:08.785Z,3.17
2019-06-19T17:12:37.681Z,2.58
2019-06-19T17:15:07.106Z,2.62
2019-06-19T17:17:36.018Z,2.77
2019-06-19T17:20:05.448Z,2.12
2019-06-19T17:22:34.361Z,2.22
2019-06-19T17:25:03.345Z,1.87
2019-06-19T17:27:32.249Z,2.10
2019-06-19T17:30:01.074Z,1.50
2019-06-19T17:32:29.927Z,1.65
2019-06-19T17:34:58.836Z,1.60
2019-06-19T17:37:27.748Z,1.50
2019-06-19T17:39:56.595Z,1.65
2019-06-19T17:42:25.432Z,2.30
2019-06-19T17:44:54.348Z,2.33
2019-06-19T17:47:23.174Z,1.87
2019-06-19T17:49:52.167Z,1.72
2019-06-19T17:52:21.004Z,1.85
2019-06-19T17:54:49.876Z,2.20
2019-06-19T17:57:18.912Z,2.00
2019-06-19T17:59:47.770Z,2.80
2019-06-19T18:02:16.571Z,2.60
2019-06-19T18:04:45.507Z,2.25
2019-06-19T18:07:14.345Z,2.50
2019-06-19T18:09:43.166Z,2.72
2019-06-19T18:12:12.050Z,2.47
2019-06-19T18:14:40.956Z,2.20
2019-06-19T18:17:09.781Z,2.30
2019-06-19T18:19:38.769Z,2.20
2019-06-19T18:22:07.778Z,3.33
2019-06-19T18:24:36.767Z,2.47
2019-06-19T18:27:05.605Z,3.12
2019-06-19T18:29:34.601Z,2.72
2019-06-19T18:32:03.584Z,2.45
2019-06-19T18:34:32.424Z,2.42
2019-06-19T18:37:01.234Z,2.72
2019-06-19T18:39:30.151Z,3.08
2019-06-19T18:41:59.004Z,2.72
2019-06-19T18:44:27.981Z,2.98
2019-06-19T18:46:56.881Z,2.52
2019-06-19T18:49:25.724Z,2.47
2019-06-19T18:51:54.648Z,2.62
2019-06-19T18:54:23.544Z,2.98
2019-06-19T18:56:52.379Z,2.60
2019-06-19T18:59:21.194Z,3.15
2019-06-19T19:01:50.073Z,2.70
2019-06-19T19:04:18.968Z,2.77
2019-06-19T19:06:47.879Z,2.52
2019-06-19T19:09:16.700Z,3.20
2019-06-19T19:11:45.521Z,2.95
2019-06-19T19:14:14.540Z,3.02
2019-06-19T19:16:43.344Z,3.75
2019-06-19T19:19:12.277Z,2.95
2019-06-19T19:21:41.205Z,3.35
2019-06-19T19:24:10.058Z,3.20
2019-06-19T19:26:38.927Z,2.80
2019-06-19T19:29:09.308Z,3.40
2019-06-19T19:31:38.117Z,2.60
2019-06-19T19:34:07.161Z,3.40
2019-06-19T19:36:36.085Z,3.42
2019-06-19T19:39:07.657Z,3.08
2019-06-19T19:41:36.575Z,3.45
2019-06-19T19:44:05.656Z,3.33
2019-06-19T19:46:34.644Z,3.40
2019-06-19T19:49:03.797Z,3.62
2019-06-19T19:51:32.682Z,3.72
2019-06-19T19:54:01.605Z,3.75
2019-06-19T19:56:30.521Z,3.37
2019-06-19T19:58:59.391Z,3.45
2019-06-19T20:01:28.294Z,3.60
2019-06-19T20:03:57.143Z,3.08
2019-06-19T20:06:26.142Z,3.40
2019-06-19T20:08:55.018Z,3.58
2019-06-19T20:11:23.920Z,3.22
2019-06-19T20:13:52.802Z,3.60
2019-06-19T20:16:21.628Z,4.45
2019-06-19T20:18:50.476Z,3.95
2019-06-19T20:21:19.456Z,3.80
2019-06-19T20:23:48.367Z,3.83
2019-06-19T20:26:17.356Z,4.28
2019-06-19T20:28:46.187Z,4.37
2019-06-19T20:31:15.074Z,3.90
2019-06-19T20:33:44.048Z,4.20
2019-06-19T20:36:12.854Z,4.30
2019-06-19T20:38:41.755Z,5.62
2019-06-19T20:41:10.676Z,7.10
2019-06-19T20:43:39.506Z,7.58
2019-06-19T20:46:24.188Z,5.83
2019-06-19T20:48:39.301Z,4.45
2019-06-19T20:51:08.299Z,5.28
2019-06-19T20:53:37.162Z,5.60
2019-06-19T20:56:06.089Z,5.90
2019-06-19T20:58:34.923Z,5.10
2019-06-19T21:01:03.785Z,5.15
2019-06-19T21:03:32.606Z,5.40
2019-06-19T21:06:01.646Z,5.45
2019-06-19T21:08:30.500Z,5.62
2019-06-19T21:10:59.334Z,5.25
2019-06-19T21:13:28.216Z,6.47
2019-06-19T21:16:03.093Z,6.95
2019-06-19T21:18:27.761Z,6.62
2019-06-19T21:20:56.768Z,7.20
2019-06-19T21:23:25.812Z,6.25
2019-06-19T21:25:54.756Z,6.10
2019-06-19T21:28:23.702Z,6.35
2019-06-19T21:30:52.626Z,7.40
2019-06-19T21:33:21.536Z,7.42
2019-06-19T21:35:50.349Z,7.70
2019-06-19T21:38:19.254Z,7.65
2019-06-19T21:40:48.152Z,7.67
2019-06-19T21:43:16.983Z,8.13
2019-06-19T21:45:45.879Z,8.08
2019-06-19T21:48:15.029Z,9.03
2019-06-19T21:50:43.862Z,9.38
2019-06-19T21:53:12.680Z,9.78
2019-06-19T21:55:41.699Z,10.87
2019-06-19T21:58:10.537Z,8.65
2019-06-19T22:00:53.662Z,11.88
2019-06-19T22:03:22.574Z,9.53
2019-06-19T22:05:51.691Z,9.23
2019-06-19T22:08:20.773Z,9.73
2019-06-19T22:10:50.042Z,9.85
2019-06-19T22:13:18.956Z,10.43
2019-06-19T22:15:47.959Z,10.23
2019-06-19T22:18:16.772Z,10.45
2019-06-19T22:20:46.130Z,10.95
2019-06-19T22:23:14.983Z,10.75
2019-06-19T22:25:43.814Z,11.18
2019-06-19T22:28:12.643Z,11.38
2019-06-19T22:30:43.890Z,11.35
2019-06-19T22:33:12.761Z,12.88
2019-06-19T22:35:41.778Z,13.32
2019-06-19T22:38:10.720Z,12.53
2019-06-19T22:40:39.827Z,12.20
2019-06-19T22:43:08.720Z,17.70
2019-06-19T22:45:37.975Z,14.63
2019-06-19T22:48:07.137Z,15.32
2019-06-19T22:50:36.660Z,15.30
2019-06-19T22:53:05.621Z,15.00
2019-06-19T22:55:35.031Z,14.85
2019-06-19T22:58:04.032Z,16.07
2019-06-19T23:00:32.988Z,15.90
2019-06-19T23:03:20.046Z,17.15
2019-06-19T23:05:54.341Z,15.48
2019-06-19T23:08:23.332Z,16.20
2019-06-19T23:10:52.267Z,16.23
2019-06-19T23:13:21.348Z,17.57
2019-06-19T23:15:50.310Z,16.83
2019-06-19T23:18:19.262Z,17.33
2019-06-19T23:20:48.169Z,18.30
2019-06-19T23:23:17.008Z,23.42
2019-06-19T23:25:45.876Z,18.23
2019-06-19T23:28:14.846Z,16.02
2019-06-19T23:30:43.850Z,18.52
2019-06-19T23:33:12.807Z,17.35
2019-06-19T23:35:41.657Z,17.98
2019-06-19T23:38:10.625Z,17.80
2019-06-19T23:40:39.664Z,18.77
2019-06-19T23:43:08.519Z,18.67
2019-06-19T23:45:38.183Z,17.90
2019-06-19T23:48:07.083Z,17.30
2019-06-19T23:50:36.040Z,18.43
2019-06-19T23:53:05.045Z,20.40
2019-06-19T23:55:33.956Z,19.55
2019-06-19T23:58:03.032Z,17.95
